createdAt,value
2017-02-11T00:00:28.847Z,0
2017-02-11T00:01:28.055Z,0
2017-02-11T00:02:28.412Z,0
2017-02-11T00:03:28.755Z,0
2017-02-11T00:04:28.732Z,0
2017-02-11T00:05:28.331Z,0
2017-02-11T00:06:28.288Z,0
2017-02-11T00:07:28.281Z,0
2017-02-11T00:08:28.631Z,0
2017-02-11T00:09:28.591Z,0
2017-02-11T00:10:28.575Z,0
2017-02-11T00:11:28.549Z,0
2017-02-11T00:12:27.752Z,0
2017-02-11T00:13:28.120Z,0
2017-02-11T00:14:28.457Z,0
2017-02-11T00:15:28.147Z,0
2017-02-11T00:16:28.408Z,0
2017-02-11T00:17:28.785Z,0
2017-02-11T00:18:27.957Z,0
2017-02-11T00:19:28.325Z,0
2017-02-11T00:20:28.299Z,0
2017-02-11T00:21:28.260Z,0
2017-02-11T00:22:27.474Z,0
2017-02-11T00:23:28.214Z,0
2017-02-11T00:24:28.580Z,0
2017-02-11T00:25:28.162Z,0
2017-02-11T00:26:28.171Z,0
2017-02-11T00:27:27.316Z,0
2017-02-11T00:28:28.166Z,0
2017-02-11T00:29:27.645Z,0
2017-02-11T00:30:28.509Z,0
2017-02-11T00:31:28.001Z,0
2017-02-11T00:32:28.404Z,0
2017-02-11T00:33:27.536Z,0
2017-02-11T00:34:27.906Z,0
2017-02-11T00:35:27.880Z,0
2017-02-11T00:36:27.866Z,0
2017-02-11T00:37:28.255Z,0
2017-02-11T00:38:28.225Z,0
2017-02-11T00:39:27.784Z,0
2017-02-11T00:40:27.734Z,0
2017-02-11T00:41:28.163Z,0
2017-02-11T00:42:27.682Z,0
2017-02-11T00:43:28.122Z,0
2017-02-11T00:44:27.621Z,0
2017-02-11T00:45:27.610Z,0
2017-02-11T00:46:27.179Z,0
2017-02-11T00:47:27.980Z,0
2017-02-11T00:48:27.130Z,0
2017-02-11T00:49:27.498Z,0
2017-02-11T00:50:27.069Z,0
2017-02-11T00:51:27.433Z,0
2017-02-11T00:52:27.787Z,0
2017-02-11T00:53:27.886Z,0
2017-02-11T00:54:27.762Z,0
2017-02-11T00:55:27.718Z,0
2017-02-11T00:56:27.283Z,0
2017-02-11T00:57:27.643Z,0
2017-02-11T00:58:27.230Z,0
2017-02-11T00:59:27.222Z,0
2017-02-11T01:00:27.173Z,0
2017-02-11T01:01:27.531Z,0
2017-02-11T01:02:27.500Z,0
2017-02-11T01:03:26.698Z,0
2017-02-11T01:04:26.689Z,0
2017-02-11T01:05:27.425Z,0
2017-02-11T01:06:27.009Z,0
2017-02-11T01:07:27.377Z,0
2017-02-11T01:08:27.014Z,0
2017-02-11T01:09:26.946Z,0
2017-02-11T01:10:26.899Z,0
2017-02-11T01:11:27.305Z,0
2017-02-11T01:12:27.243Z,0
2017-02-11T01:13:26.815Z,0
2017-02-11T01:14:27.193Z,0
2017-02-11T01:15:27.150Z,0
2017-02-11T01:16:26.770Z,0
2017-02-11T01:17:27.123Z,0
2017-02-11T01:18:27.110Z,0
2017-02-11T01:19:27.099Z,0
2017-02-11T01:20:27.019Z,0
2017-02-11T01:21:27.038Z,0
2017-02-11T01:22:26.958Z,0
2017-02-11T01:23:26.129Z,0
2017-02-11T01:24:26.128Z,0
2017-02-11T01:25:26.957Z,0
2017-02-11T01:26:26.864Z,0
2017-02-11T01:27:26.903Z,0
2017-02-11T01:28:26.865Z,0
2017-02-11T01:29:26.465Z,0
2017-02-11T01:30:25.972Z,0
2017-02-11T01:31:25.926Z,0
2017-02-11T01:32:26.701Z,0
2017-02-11T01:33:25.859Z,0
2017-02-11T01:34:26.220Z,0
2017-02-11T01:35:25.910Z,0
2017-02-11T01:36:26.310Z,0
2017-02-11T01:37:26.208Z,0
2017-02-11T01:38:25.724Z,0
2017-02-11T01:39:25.307Z,0
2017-02-11T01:40:26.147Z,0
2017-02-11T01:41:26.034Z,0
2017-02-11T01:42:26.024Z,0
2017-02-11T01:43:26.375Z,0
2017-02-11T01:44:25.565Z,0
2017-02-11T01:45:26.327Z,0
2017-02-11T01:46:26.360Z,0
2017-02-11T01:47:26.316Z,0
2017-02-11T01:48:26.225Z,0
2017-02-11T01:49:25.441Z,0
2017-02-11T01:50:25.404Z,0
2017-02-11T01:51:26.230Z,0
2017-02-11T01:52:24.950Z,0
2017-02-11T01:53:25.729Z,0
2017-02-11T01:54:25.320Z,0
2017-02-11T01:55:25.638Z,0
2017-02-11T01:56:25.628Z,0
2017-02-11T01:57:25.589Z,0
2017-02-11T01:58:25.166Z,0
2017-02-11T01:59:25.526Z,0
2017-02-11T02:00:25.122Z,0
2017-02-11T02:01:25.868Z,0
2017-02-11T02:02:25.557Z,0
2017-02-11T02:03:25.425Z,0
2017-02-11T02:04:24.622Z,0
2017-02-11T02:05:25.025Z,0
2017-02-11T02:06:25.409Z,0
2017-02-11T02:07:25.309Z,0
2017-02-11T02:08:25.668Z,0
2017-02-11T02:09:25.312Z,0
2017-02-11T02:10:25.231Z,0
2017-02-11T02:11:25.238Z,0
2017-02-11T02:12:25.598Z,0
2017-02-11T02:13:25.590Z,0
2017-02-11T02:14:25.129Z,0
2017-02-11T02:15:24.704Z,0
2017-02-11T02:16:25.068Z,0
2017-02-11T02:17:25.049Z,0
2017-02-11T02:18:25.017Z,0
2017-02-11T02:19:25.367Z,0
2017-02-11T02:20:25.346Z,0
2017-02-11T02:21:25.006Z,0
2017-02-11T02:22:25.285Z,0
2017-02-11T02:23:24.926Z,0
2017-02-11T02:24:24.833Z,0
2017-02-11T02:25:25.210Z,0
2017-02-11T02:26:24.822Z,0
2017-02-11T02:27:24.903Z,0
2017-02-11T02:28:24.337Z,0
2017-02-11T02:29:24.740Z,0
2017-02-11T02:30:24.681Z,0
2017-02-11T02:31:24.331Z,0
2017-02-11T02:32:23.850Z,0
2017-02-11T02:33:24.980Z,0
2017-02-11T02:34:24.580Z,0
2017-02-11T02:35:24.949Z,0
2017-02-11T02:36:24.623Z,0
2017-02-11T02:37:24.158Z,0
2017-02-11T02:38:24.859Z,0
2017-02-11T02:39:24.122Z,0
2017-02-11T02:40:23.627Z,0
2017-02-11T02:41:24.028Z,0
2017-02-11T02:42:24.344Z,0
2017-02-11T02:43:24.342Z,0
2017-02-11T02:44:23.934Z,0
2017-02-11T02:45:24.282Z,0
2017-02-11T02:46:23.953Z,0
2017-02-11T02:47:23.852Z,0
2017-02-11T02:48:23.782Z,0
2017-02-11T02:49:24.231Z,0
2017-02-11T02:50:23.732Z,0
2017-02-11T02:51:24.472Z,0
2017-02-11T02:52:24.070Z,0
2017-02-11T02:53:23.661Z,0
2017-02-11T02:54:24.001Z,0
2017-02-11T02:55:23.588Z,0
2017-02-11T02:56:23.579Z,0
2017-02-11T02:57:23.930Z,0
2017-02-11T02:58:24.287Z,0
2017-02-11T02:59:23.878Z,0
2017-02-11T03:00:23.446Z,0
2017-02-11T03:01:23.848Z,0
2017-02-11T03:02:24.176Z,0
2017-02-11T03:03:23.375Z,0
2017-02-11T03:04:23.345Z,0
2017-02-11T03:05:23.314Z,0
2017-02-11T03:06:24.095Z,0
2017-02-11T03:07:23.663Z,0
2017-02-11T03:08:23.622Z,0
2017-02-11T03:09:23.582Z,0
2017-02-11T03:10:23.570Z,0
2017-02-11T03:11:23.165Z,0
2017-02-11T03:12:23.520Z,0
2017-02-11T03:13:23.115Z,0
2017-02-11T03:14:23.842Z,0
2017-02-11T03:15:23.042Z,0
2017-02-11T03:16:23.829Z,0
2017-02-11T03:17:23.768Z,0
2017-02-11T03:18:22.970Z,0
2017-02-11T03:19:22.917Z,0
2017-02-11T03:20:22.973Z,0
2017-02-11T03:21:23.267Z,0
2017-02-11T03:22:23.717Z,0
2017-02-11T03:23:23.206Z,0
2017-02-11T03:24:23.205Z,0
2017-02-11T03:25:23.144Z,0
2017-02-11T03:26:23.532Z,0
2017-02-11T03:27:23.114Z,0
2017-02-11T03:28:22.694Z,0
2017-02-11T03:29:23.432Z,0
2017-02-11T03:30:22.622Z,0
2017-02-11T03:31:23.406Z,0
2017-02-11T03:32:22.578Z,0
2017-02-11T03:33:22.531Z,0
2017-02-11T03:34:22.929Z,0
2017-02-11T03:35:22.883Z,0
2017-02-11T03:36:22.471Z,0
2017-02-11T03:37:22.865Z,0
2017-02-11T03:38:23.169Z,0
2017-02-11T03:39:23.139Z,0
2017-02-11T03:40:22.448Z,0
2017-02-11T03:41:22.317Z,0
2017-02-11T03:42:23.071Z,0
2017-02-11T03:43:22.705Z,0
2017-02-11T03:44:23.064Z,0
2017-02-11T03:45:22.973Z,0
2017-02-11T03:46:22.964Z,0
2017-02-11T03:47:22.165Z,0
2017-02-11T03:48:22.893Z,0
2017-02-11T03:49:22.483Z,0
2017-02-11T03:50:22.843Z,0
2017-02-11T03:51:22.543Z,0
2017-02-11T03:52:22.793Z,0
2017-02-11T03:53:22.413Z,0
2017-02-11T03:54:22.747Z,0
2017-02-11T03:55:22.698Z,0
2017-02-11T03:56:22.289Z,0
2017-02-11T03:57:21.890Z,0
2017-02-11T03:58:22.238Z,0
2017-02-11T03:59:22.220Z,0
2017-02-11T04:00:22.577Z,0
2017-02-11T04:01:22.166Z,0
2017-02-11T04:02:22.527Z,0
2017-02-11T04:03:22.504Z,0
2017-02-11T04:04:21.696Z,0
2017-02-11T04:05:22.054Z,0
2017-02-11T04:06:21.645Z,0
2017-02-11T04:07:21.609Z,0
2017-02-11T04:08:22.345Z,0
2017-02-11T04:09:22.323Z,0
2017-02-11T04:10:22.302Z,0
2017-02-11T04:11:22.273Z,0
2017-02-11T04:12:22.254Z,0
2017-02-11T04:13:21.809Z,0
2017-02-11T04:14:22.180Z,0
2017-02-11T04:15:22.149Z,0
2017-02-11T04:16:21.749Z,0
2017-02-11T04:17:21.708Z,0
2017-02-11T04:18:22.068Z,0
2017-02-11T04:19:21.648Z,0
2017-02-11T04:20:20.852Z,0
2017-02-11T04:21:21.226Z,0
2017-02-11T04:22:21.581Z,0
2017-02-11T04:23:22.005Z,0
2017-02-11T04:24:21.917Z,0
2017-02-11T04:25:21.503Z,0
2017-02-11T04:26:21.461Z,0
2017-02-11T04:27:21.843Z,0
2017-02-11T04:28:21.414Z,0
2017-02-11T04:29:21.015Z,0
2017-02-11T04:30:21.752Z,0
2017-02-11T04:31:20.982Z,0
2017-02-11T04:32:21.683Z,0
2017-02-11T04:33:21.661Z,0
2017-02-11T04:34:21.241Z,0
2017-02-11T04:35:21.599Z,0
2017-02-11T04:36:21.631Z,0
2017-02-11T04:37:20.778Z,0
2017-02-11T04:38:21.147Z,0
2017-02-11T04:39:21.108Z,0
2017-02-11T04:40:21.457Z,0
2017-02-11T04:41:20.690Z,0
2017-02-11T04:42:21.006Z,0
2017-02-11T04:43:21.375Z,0
2017-02-11T04:44:21.364Z,0
2017-02-11T04:45:20.564Z,0
2017-02-11T04:46:21.309Z,0
2017-02-11T04:47:20.553Z,0
2017-02-11T04:48:20.874Z,0
2017-02-11T04:49:20.443Z,0
2017-02-11T04:50:21.180Z,0
2017-02-11T04:51:20.783Z,0
2017-02-11T04:52:19.971Z,0
2017-02-11T04:53:21.111Z,0
2017-02-11T04:54:20.705Z,0
2017-02-11T04:55:21.078Z,0
2017-02-11T04:56:20.312Z,0
2017-02-11T04:57:21.009Z,0
2017-02-11T04:58:20.191Z,0
2017-02-11T04:59:20.548Z,0
2017-02-11T05:00:20.904Z,0
2017-02-11T05:01:20.539Z,0
2017-02-11T05:02:20.881Z,0
2017-02-11T05:03:20.504Z,0
2017-02-11T05:04:20.417Z,0
2017-02-11T05:05:20.494Z,0
2017-02-11T05:06:20.364Z,0
2017-02-11T05:07:20.334Z,0
2017-02-11T05:08:20.292Z,0
2017-02-11T05:09:20.283Z,0
2017-02-11T05:10:20.251Z,0
2017-02-11T05:11:20.210Z,0
2017-02-11T05:12:19.817Z,0
2017-02-11T05:13:20.162Z,0
2017-02-11T05:14:20.139Z,0
2017-02-11T05:15:20.098Z,0
2017-02-11T05:16:20.074Z,0
2017-02-11T05:17:20.427Z,0
2017-02-11T05:18:19.640Z,0
2017-02-11T05:19:19.977Z,0
2017-02-11T05:20:20.377Z,0
2017-02-11T05:21:19.943Z,0
2017-02-11T05:22:20.366Z,0
2017-02-11T05:23:20.276Z,0
2017-02-11T05:24:20.251Z,0
2017-02-11T05:25:20.317Z,0
2017-02-11T05:26:19.805Z,0
2017-02-11T05:27:19.763Z,0
2017-02-11T05:28:19.367Z,0
2017-02-11T05:29:19.312Z,0
2017-02-11T05:30:19.684Z,0
2017-02-11T05:31:20.052Z,0
2017-02-11T05:32:19.711Z,0
2017-02-11T05:33:19.989Z,0
2017-02-11T05:34:19.975Z,0
2017-02-11T05:35:19.168Z,0
2017-02-11T05:36:19.898Z,0
2017-02-11T05:37:19.499Z,0
2017-02-11T05:38:19.847Z,0
2017-02-11T05:39:18.657Z,0
2017-02-11T05:40:19.016Z,0
2017-02-11T05:41:18.984Z,0
2017-02-11T05:42:19.336Z,0
2017-02-11T05:43:19.740Z,0
2017-02-11T05:44:19.705Z,0
2017-02-11T05:45:19.285Z,0
2017-02-11T05:46:19.634Z,0
2017-02-11T05:47:19.596Z,0
2017-02-11T05:48:19.180Z,0
2017-02-11T05:49:18.374Z,0
2017-02-11T05:50:19.130Z,0
2017-02-11T05:51:19.110Z,0
2017-02-11T05:52:19.085Z,0
2017-02-11T05:53:19.430Z,0
2017-02-11T05:54:19.030Z,0
2017-02-11T05:55:18.997Z,0
2017-02-11T05:56:19.369Z,0
2017-02-11T05:57:18.587Z,0
2017-02-11T05:58:18.665Z,0
2017-02-11T05:59:18.885Z,0
2017-02-11T06:00:18.455Z,0
2017-02-11T06:01:18.864Z,0
2017-02-11T06:02:19.185Z,0
2017-02-11T06:03:19.173Z,0
2017-02-11T06:04:19.144Z,0
2017-02-11T06:05:18.712Z,0
2017-02-11T06:06:18.284Z,0
2017-02-11T06:07:18.674Z,0
2017-02-11T06:08:18.621Z,0
2017-02-11T06:09:18.342Z,0
2017-02-11T06:10:18.570Z,0
2017-02-11T06:11:18.318Z,0
2017-02-11T06:12:17.740Z,0
2017-02-11T06:13:18.962Z,0
2017-02-11T06:14:18.836Z,0
2017-02-11T06:15:18.474Z,0
2017-02-11T06:16:18.449Z,0
2017-02-11T06:17:18.767Z,0
2017-02-11T06:18:18.336Z,0
2017-02-11T06:19:18.391Z,0
2017-02-11T06:20:18.423Z,0
2017-02-11T06:21:18.332Z,4
2017-02-11T06:22:17.853Z,4
2017-02-11T06:23:18.198Z,0
2017-02-11T06:24:18.573Z,4
2017-02-11T06:25:18.171Z,0
2017-02-11T06:26:18.134Z,4
2017-02-11T06:27:18.082Z,8
2017-02-11T06:28:18.081Z,4
2017-02-11T06:29:17.250Z,4
2017-02-11T06:30:17.611Z,8
2017-02-11T06:31:18.392Z,4
2017-02-11T06:32:17.978Z,8
2017-02-11T06:33:18.028Z,8
2017-02-11T06:34:17.898Z,8
2017-02-11T06:35:17.867Z,12
2017-02-11T06:36:17.454Z,12
2017-02-11T06:37:17.807Z,8
2017-02-11T06:38:17.786Z,12
2017-02-11T06:39:18.135Z,16
2017-02-11T06:40:17.734Z,12
2017-02-11T06:41:17.708Z,16
2017-02-11T06:42:17.271Z,16
2017-02-11T06:43:17.739Z,16
2017-02-11T06:44:17.607Z,16
2017-02-11T06:45:17.961Z,20
2017-02-11T06:46:17.550Z,20
2017-02-11T06:47:17.547Z,20
2017-02-11T06:48:17.502Z,20
2017-02-11T06:49:17.492Z,24
2017-02-11T06:50:17.518Z,28
2017-02-11T06:51:17.008Z,28
2017-02-11T06:52:17.439Z,32
2017-02-11T06:53:17.363Z,36
2017-02-11T06:54:17.066Z,40
2017-02-11T06:55:17.686Z,44
2017-02-11T06:56:17.374Z,48
2017-02-11T06:57:17.627Z,56
2017-02-11T06:58:17.214Z,56
2017-02-11T06:59:16.834Z,60
2017-02-11T07:00:17.579Z,64
2017-02-11T07:01:17.137Z,72
2017-02-11T07:02:17.103Z,80
2017-02-11T07:03:16.694Z,88
2017-02-11T07:04:16.770Z,96
2017-02-11T07:05:17.011Z,108
2017-02-11T07:06:17.372Z,120
2017-02-11T07:07:16.572Z,128
2017-02-11T07:08:16.933Z,136
2017-02-11T07:09:16.928Z,144
2017-02-11T07:10:16.888Z,144
2017-02-11T07:11:16.848Z,148
2017-02-11T07:12:16.877Z,152
2017-02-11T07:13:17.278Z,156
2017-02-11T07:14:16.407Z,156
2017-02-11T07:15:17.127Z,156
2017-02-11T07:16:16.736Z,160
2017-02-11T07:17:16.714Z,168
2017-02-11T07:18:16.664Z,172
2017-02-11T07:19:17.014Z,180
2017-02-11T07:20:16.613Z,180
2017-02-11T07:21:16.972Z,180
2017-02-11T07:22:16.934Z,180
2017-02-11T07:23:16.891Z,184
2017-02-11T07:24:16.493Z,192
2017-02-11T07:25:16.467Z,208
2017-02-11T07:26:16.150Z,228
2017-02-11T07:27:16.820Z,256
2017-02-11T07:28:16.877Z,292
2017-02-11T07:29:15.999Z,332
2017-02-11T07:30:15.917Z,368
2017-02-11T07:31:16.303Z,392
2017-02-11T07:32:16.287Z,408
2017-02-11T07:33:15.938Z,424
2017-02-11T07:34:15.807Z,440
2017-02-11T07:35:16.174Z,476
2017-02-11T07:36:15.374Z,524
2017-02-11T07:37:16.514Z,572
2017-02-11T07:38:16.104Z,620
2017-02-11T07:39:15.733Z,660
2017-02-11T07:40:16.042Z,676
2017-02-11T07:41:16.430Z,664
2017-02-11T07:42:15.595Z,664
2017-02-11T07:43:15.580Z,696
2017-02-11T07:44:15.520Z,728
2017-02-11T07:45:15.516Z,748
2017-02-11T07:46:15.869Z,764
2017-02-11T07:47:15.560Z,772
2017-02-11T07:48:15.819Z,796
2017-02-11T07:49:16.189Z,832
2017-02-11T07:50:14.998Z,848
2017-02-11T07:51:15.337Z,836
2017-02-11T07:52:15.296Z,824
2017-02-11T07:53:15.685Z,812
2017-02-11T07:54:15.675Z,784
2017-02-11T07:55:15.220Z,736
2017-02-11T07:56:15.195Z,684
2017-02-11T07:57:15.564Z,656
2017-02-11T07:58:15.163Z,656
2017-02-11T07:59:15.127Z,688
2017-02-11T08:00:15.481Z,764
2017-02-11T08:01:15.572Z,848
2017-02-11T08:02:15.020Z,936
2017-02-11T08:03:15.814Z,996
2017-02-11T08:04:14.984Z,1120
2017-02-11T08:05:15.708Z,1252
2017-02-11T08:06:14.930Z,1352
2017-02-11T08:07:15.281Z,1428
2017-02-11T08:08:14.870Z,1476
2017-02-11T08:09:15.247Z,1524
2017-02-11T08:10:15.213Z,1612
2017-02-11T08:11:15.171Z,1688
2017-02-11T08:12:15.146Z,1720
2017-02-11T08:13:15.187Z,1648
2017-02-11T08:14:15.095Z,1564
2017-02-11T08:15:15.065Z,1484
2017-02-11T08:16:15.063Z,1400
2017-02-11T08:17:15.014Z,1372
2017-02-11T08:18:15.353Z,1400
2017-02-11T08:19:14.541Z,1340
2017-02-11T08:20:15.291Z,1280
2017-02-11T08:21:14.891Z,1208
2017-02-11T08:22:15.244Z,1152
2017-02-11T08:23:14.853Z,1060
2017-02-11T08:24:15.198Z,932
2017-02-11T08:25:14.779Z,852
2017-02-11T08:26:14.749Z,788
2017-02-11T08:27:15.119Z,724
2017-02-11T08:28:14.727Z,660
2017-02-11T08:29:15.057Z,600
2017-02-11T08:30:14.250Z,544
2017-02-11T08:31:14.986Z,492
2017-02-11T08:32:14.216Z,440
2017-02-11T08:33:14.554Z,404
2017-02-11T08:34:14.163Z,376
2017-02-11T08:35:14.884Z,348
2017-02-11T08:36:14.843Z,336
2017-02-11T08:37:14.853Z,328
2017-02-11T08:38:14.803Z,304
2017-02-11T08:39:14.483Z,296
2017-02-11T08:40:14.040Z,296
2017-02-11T08:41:13.959Z,308
2017-02-11T08:42:14.706Z,324
2017-02-11T08:43:14.269Z,320
2017-02-11T08:44:14.250Z,312
2017-02-11T08:45:14.227Z,308
2017-02-11T08:46:14.611Z,320
2017-02-11T08:47:13.776Z,332
2017-02-11T08:48:14.542Z,340
2017-02-11T08:49:14.496Z,336
2017-02-11T08:50:14.476Z,340
2017-02-11T08:51:13.672Z,360
2017-02-11T08:52:14.025Z,380
2017-02-11T08:53:13.984Z,404
2017-02-11T08:54:13.993Z,432
2017-02-11T08:55:13.547Z,456
2017-02-11T08:56:13.914Z,480
2017-02-11T08:57:14.291Z,516
2017-02-11T08:58:13.852Z,556
2017-02-11T08:59:13.440Z,600
2017-02-11T09:00:13.418Z,620
2017-02-11T09:01:13.390Z,612
2017-02-11T09:02:13.729Z,608
2017-02-11T09:03:14.100Z,612
2017-02-11T09:04:13.307Z,652
2017-02-11T09:05:14.068Z,672
2017-02-11T09:06:13.656Z,692
2017-02-11T09:07:13.607Z,720
2017-02-11T09:08:13.589Z,736
2017-02-11T09:09:13.977Z,752
2017-02-11T09:10:13.526Z,756
2017-02-11T09:11:13.494Z,764
2017-02-11T09:12:13.465Z,800
2017-02-11T09:13:13.437Z,868
2017-02-11T09:14:13.413Z,912
2017-02-11T09:15:13.380Z,916
2017-02-11T09:16:13.340Z,896
2017-02-11T09:17:13.356Z,856
2017-02-11T09:18:13.712Z,820
2017-02-11T09:19:12.881Z,816
2017-02-11T09:20:12.859Z,804
2017-02-11T09:21:13.611Z,788
2017-02-11T09:22:13.589Z,780
2017-02-11T09:23:13.148Z,812
2017-02-11T09:24:13.138Z,852
2017-02-11T09:25:13.113Z,856
2017-02-11T09:26:13.077Z,844
2017-02-11T09:27:13.047Z,832
2017-02-11T09:28:13.429Z,820
2017-02-11T09:29:13.419Z,836
2017-02-11T09:30:13.076Z,884
2017-02-11T09:31:13.006Z,932
2017-02-11T09:32:12.995Z,984
2017-02-11T09:33:13.414Z,1024
2017-02-11T09:34:13.300Z,1056
2017-02-11T09:35:13.245Z,1068
2017-02-11T09:36:12.919Z,1072
2017-02-11T09:37:13.202Z,1088
2017-02-11T09:38:13.243Z,1116
2017-02-11T09:39:13.181Z,1116
2017-02-11T09:40:13.268Z,1100
2017-02-11T09:41:13.149Z,1060
2017-02-11T09:42:12.706Z,1040
2017-02-11T09:43:12.276Z,1044
2017-02-11T09:44:13.124Z,1084
2017-02-11T09:45:13.135Z,1140
2017-02-11T09:46:12.630Z,1160
2017-02-11T09:47:12.147Z,1140
2017-02-11T09:48:12.265Z,1104
2017-02-11T09:49:12.217Z,1068
2017-02-11T09:50:12.563Z,1028
2017-02-11T09:51:12.856Z,980
2017-02-11T09:52:12.853Z,912
2017-02-11T09:53:12.357Z,868
2017-02-11T09:54:12.823Z,824
2017-02-11T09:55:12.303Z,780
2017-02-11T09:56:11.891Z,812
2017-02-11T09:57:12.698Z,872
2017-02-11T09:58:12.620Z,968
2017-02-11T10:00:02.072Z,1380
2017-02-11T10:00:13.694Z,1440
2017-02-11T10:01:12.761Z,1724
2017-02-11T10:02:14.890Z,1992
2017-02-11T10:03:12.673Z,2244
2017-02-11T10:04:12.290Z,2424
2017-02-11T10:05:12.247Z,2580
2017-02-11T10:06:12.199Z,2680
2017-02-11T10:07:12.170Z,2684
2017-02-11T10:08:17.779Z,2596
2017-02-11T10:09:12.575Z,2488
2017-02-11T10:10:12.487Z,2372
2017-02-11T10:11:12.486Z,2280
2017-02-11T10:12:12.467Z,2240
2017-02-11T10:13:11.733Z,2272
2017-02-11T10:14:12.011Z,2300
2017-02-11T10:15:13.321Z,2348
2017-02-11T10:16:11.909Z,2380
2017-02-11T10:17:11.891Z,2264
2017-02-11T10:18:11.468Z,2040
2017-02-11T10:19:11.821Z,1868
2017-02-11T10:20:12.190Z,1744
2017-02-11T10:21:11.798Z,1660
2017-02-11T10:22:12.170Z,1608
2017-02-11T10:23:11.728Z,1620
2017-02-11T10:24:12.066Z,1688
2017-02-11T10:25:11.285Z,1784
2017-02-11T10:26:11.625Z,1892
2017-02-11T10:27:11.215Z,2012
2017-02-11T10:28:11.973Z,2124
2017-02-11T10:29:11.935Z,2232
2017-02-11T10:30:11.517Z,2340
2017-02-11T10:31:11.883Z,2372
2017-02-11T10:32:11.472Z,2436
2017-02-11T10:33:11.479Z,2416
2017-02-11T10:34:11.423Z,2364
2017-02-11T10:35:10.601Z,2300
2017-02-11T10:36:11.377Z,2192
2017-02-11T10:37:11.369Z,2076
2017-02-11T10:38:11.721Z,1916
2017-02-11T10:39:10.922Z,1760
2017-02-11T10:40:11.276Z,1592
2017-02-11T10:41:11.638Z,1444
2017-02-11T10:42:11.208Z,1324
2017-02-11T10:43:10.888Z,1256
2017-02-11T10:44:11.139Z,1216
2017-02-11T10:45:11.131Z,1220
2017-02-11T10:46:10.715Z,1232
2017-02-11T10:47:11.076Z,1224
2017-02-11T10:48:11.414Z,1180
2017-02-11T10:49:11.020Z,1120
2017-02-11T10:50:11.109Z,1028
2017-02-11T10:51:10.572Z,928
2017-02-11T10:52:10.601Z,856
2017-02-11T10:53:11.297Z,812
2017-02-11T10:54:11.271Z,784
2017-02-11T10:55:10.854Z,756
2017-02-11T10:56:10.464Z,740
2017-02-11T10:57:11.242Z,728
2017-02-11T10:58:10.760Z,704
2017-02-11T10:59:10.745Z,692
2017-02-11T11:00:10.718Z,700
2017-02-11T11:01:11.089Z,716
2017-02-11T11:02:11.035Z,760
2017-02-11T11:03:10.287Z,820
2017-02-11T11:04:10.607Z,872
2017-02-11T11:05:10.576Z,916
2017-02-11T11:06:10.160Z,960
2017-02-11T11:07:10.533Z,976
2017-02-11T11:08:10.913Z,980
2017-02-11T11:09:10.864Z,992
2017-02-11T11:10:10.452Z,1032
2017-02-11T11:11:10.876Z,1068
2017-02-11T11:12:10.402Z,1120
2017-02-11T11:13:09.991Z,1192
2017-02-11T11:14:09.967Z,1268
2017-02-11T11:15:10.299Z,1312
2017-02-11T11:16:09.887Z,1336
2017-02-11T11:17:10.639Z,1376
2017-02-11T11:18:10.610Z,1456
2017-02-11T11:19:10.199Z,1500
2017-02-11T11:20:10.191Z,1504
2017-02-11T11:21:10.146Z,1480
2017-02-11T11:22:10.519Z,1432
2017-02-11T11:23:10.102Z,1376
2017-02-11T11:24:09.689Z,1336
2017-02-11T11:25:10.064Z,1332
2017-02-11T11:26:10.033Z,1332
2017-02-11T11:27:10.389Z,1328
2017-02-11T11:28:09.992Z,1352
2017-02-11T11:29:09.931Z,1420
2017-02-11T11:30:09.941Z,1484
2017-02-11T11:31:09.880Z,1512
2017-02-11T11:32:10.304Z,1560
2017-02-11T11:33:09.041Z,1644
2017-02-11T11:34:09.798Z,1784
2017-02-11T11:35:09.801Z,1916
2017-02-11T11:36:10.148Z,2044
2017-02-11T11:37:09.729Z,2152
2017-02-11T11:38:09.708Z,2224
2017-02-11T11:39:09.647Z,2236
2017-02-11T11:40:09.246Z,2244
2017-02-11T11:41:10.059Z,2348
2017-02-11T11:42:09.975Z,2396
2017-02-11T11:43:09.554Z,2416
2017-02-11T11:44:09.923Z,2328
2017-02-11T11:45:09.918Z,2096
2017-02-11T11:46:08.713Z,1880
2017-02-11T11:47:09.074Z,1724
2017-02-11T11:48:09.046Z,1644
2017-02-11T11:49:09.402Z,1684
2017-02-11T11:50:09.771Z,1760
2017-02-11T11:51:09.850Z,1816
2017-02-11T11:52:09.324Z,1864
2017-02-11T11:53:09.698Z,1880
2017-02-11T11:54:09.649Z,1844
2017-02-11T11:55:09.658Z,1828
2017-02-11T11:56:09.607Z,1840
2017-02-11T11:57:09.590Z,1936
2017-02-11T11:58:08.769Z,2144
2017-02-11T11:59:09.159Z,2324
2017-02-11T12:00:09.107Z,2336
2017-02-11T12:01:08.703Z,2280
2017-02-11T12:02:09.056Z,2216
2017-02-11T12:03:09.027Z,2188
2017-02-11T12:04:09.035Z,2168
2017-02-11T12:05:09.433Z,2200
2017-02-11T12:06:08.961Z,2220
2017-02-11T12:07:09.336Z,2240
2017-02-11T12:08:08.903Z,2332
2017-02-11T12:09:08.931Z,2432
2017-02-11T12:10:09.241Z,2452
2017-02-11T12:11:08.870Z,2492
2017-02-11T12:12:08.028Z,2548
2017-02-11T12:13:08.386Z,2632
2017-02-11T12:14:08.750Z,2752
2017-02-11T12:15:08.989Z,2904
2017-02-11T12:16:08.697Z,2828
2017-02-11T12:17:08.382Z,2768
2017-02-11T12:18:08.676Z,2784
2017-02-11T12:19:08.627Z,2868
2017-02-11T12:20:08.598Z,2952
2017-02-11T12:21:08.597Z,3076
2017-02-11T12:22:09.106Z,3180
2017-02-11T12:23:08.945Z,3048
2017-02-11T12:24:08.476Z,2816
2017-02-11T12:25:08.472Z,2568
2017-02-11T12:26:08.055Z,2536
2017-02-11T12:27:08.812Z,2492
2017-02-11T12:28:08.454Z,2412
2017-02-11T12:29:07.616Z,2268
2017-02-11T12:30:07.945Z,2224
2017-02-11T12:31:07.908Z,2180
2017-02-11T12:32:07.898Z,1988
2017-02-11T12:33:08.648Z,1820
2017-02-11T12:34:07.470Z,1740
2017-02-11T12:35:08.648Z,1708
2017-02-11T12:36:08.256Z,1668
2017-02-11T12:37:08.175Z,1636
2017-02-11T12:38:07.752Z,1628
2017-02-11T12:39:08.115Z,1644
2017-02-11T12:40:08.093Z,1672
2017-02-11T12:41:07.675Z,1660
2017-02-11T12:42:07.266Z,1656
2017-02-11T12:43:08.004Z,1700
2017-02-11T12:44:08.002Z,1748
2017-02-11T12:45:07.971Z,1784
2017-02-11T12:46:07.551Z,1828
2017-02-11T12:47:08.000Z,1836
2017-02-11T12:48:08.298Z,1812
2017-02-11T12:49:08.360Z,1764
2017-02-11T12:50:07.829Z,1720
2017-02-11T12:51:07.800Z,1676
2017-02-11T12:52:08.160Z,1564
2017-02-11T12:53:07.760Z,1444
2017-02-11T12:54:07.339Z,1336
2017-02-11T12:55:07.699Z,1256
2017-02-11T12:56:08.174Z,1200
2017-02-11T12:57:08.044Z,1180
2017-02-11T12:58:08.017Z,1148
2017-02-11T12:59:07.606Z,1092
2017-02-11T13:00:07.604Z,1040
2017-02-11T13:01:07.565Z,1004
2017-02-11T13:02:08.030Z,1004
2017-02-11T13:03:07.608Z,1036
2017-02-11T13:04:07.902Z,1068
2017-02-11T13:05:07.089Z,1116
2017-02-11T13:06:07.072Z,1220
2017-02-11T13:07:07.019Z,1396
2017-02-11T13:08:07.781Z,1620
2017-02-11T13:09:07.398Z,1788
2017-02-11T13:10:07.392Z,1872
2017-02-11T13:11:06.922Z,1928
2017-02-11T13:12:07.270Z,2080
2017-02-11T13:13:06.918Z,2388
2017-02-11T13:14:07.618Z,2736
2017-02-11T13:15:06.833Z,2924
2017-02-11T13:16:07.605Z,3036
2017-02-11T13:17:06.791Z,3084
2017-02-11T13:18:06.353Z,3152
2017-02-11T13:19:06.714Z,3216
2017-02-11T13:20:07.083Z,3360
2017-02-11T13:21:07.097Z,3940
2017-02-11T13:22:07.043Z,5232
2017-02-11T13:23:07.021Z,6568
2017-02-11T13:24:06.995Z,6532
2017-02-11T13:25:06.983Z,5772
2017-02-11T13:26:06.925Z,5324
2017-02-11T13:27:06.514Z,5228
2017-02-11T13:28:07.308Z,5108
2017-02-11T13:29:06.450Z,4592
2017-02-11T13:30:06.829Z,4184
2017-02-11T13:31:07.209Z,4112
2017-02-11T13:32:06.817Z,4040
2017-02-11T13:33:07.208Z,3900
2017-02-11T13:34:07.146Z,4004
2017-02-11T13:35:06.050Z,5296
2017-02-11T13:36:06.304Z,4708
2017-02-11T13:37:06.657Z,5740
2017-02-11T13:38:06.635Z,6352
2017-02-11T13:39:06.613Z,6040
2017-02-11T13:40:06.571Z,4648
2017-02-11T13:41:06.627Z,5464
2017-02-11T13:42:06.942Z,7032
2017-02-11T13:43:06.894Z,4424
2017-02-11T13:44:06.493Z,4856
2017-02-11T13:45:06.862Z,4028
2017-02-11T13:46:06.048Z,4384
2017-02-11T13:47:06.421Z,6020
2017-02-11T13:48:06.790Z,6156
2017-02-11T13:49:05.979Z,7096
2017-02-11T13:50:06.741Z,7164
2017-02-11T13:51:06.331Z,5532
2017-02-11T13:52:06.319Z,4760
2017-02-11T13:53:06.272Z,6180
2017-02-11T13:54:06.648Z,7532
2017-02-11T13:55:05.833Z,7356
2017-02-11T13:56:05.831Z,8792
2017-02-11T13:57:06.178Z,8904
2017-02-11T13:58:06.560Z,8976
2017-02-11T13:59:05.725Z,9092
2017-02-11T14:00:06.491Z,8788
2017-02-11T14:01:06.474Z,8800
2017-02-11T14:02:05.660Z,8672
2017-02-11T14:03:05.652Z,8348
2017-02-11T14:04:06.025Z,8392
2017-02-11T14:05:05.605Z,8596